Weather at Fillmore County Airport

Public forecast

Using degrees Fahrenheit for public forecast. Weather courtesy of forecast.io.

Current aviation weather report (METAR) for Fillmore County Airport

2024/04/25 07:55 (retrieved 22 minutes ago)

KFKA 250755Z AUTO 17008KT 10SM 05/M04 A3021 RMK AO2

Closest aviation forecast (TAF) to Fillmore County Airport

Closest forecast is Rochester International Airport, 19.6 nm (36.4 km) NW.

2024/04/25 06:22 (retrieved 2 hours ago)

TAF KRST 250520Z 2506/2606 14007KT P6SM SCT250 FM251500 16014G20KT P6SM SCT200